Hudson, WI (54016)

7:53 PM CST on December 04, 2016 (GMT -0600)
Emerald Highlands | | Change Station

Elev 909 ft 44.98 °N, 92.80 °W | Updated 16 seconds ago

Overcast
Overcast
35.5 °F
Feels Like 36 °F
N
1.0
Wind Variable Wind from SSE
Gusts 8.0 mph

Today
High -- | Low -- °F
--% Chance of Precip.
Yesterday
High -- | Low -- °F
Precip. -- in
Pressure 29.75 in
Visibility 10.0 miles
Clouds Overcast 1700 ft
Windchill 36 °F
Dew Point 34 °F
Humidity 95%
Rainfall in
Snow Depth Not available.
7:32 AM 4:30 PM
Waxing Crescent, 27% visible
METAR K21D 050132Z AUTO 25010G14KT 10SM OVC017 02/01 A2975 RMK AO2
Pressure 29.75 in
Visibility 10.0 miles
Clouds Overcast 1700 ft
Windchill 36 °F
Dew Point 34 °F
Humidity 95%
Rainfall in
Snow Depth Not available.
7:32 AM 4:30 PM
Waxing Crescent, 27% visible
METAR K21D 050132Z AUTO 25010G14KT 10SM OVC017 02/01 A2975 RMK AO2

10-Day Weather Forecast

Almanac

Astronomy

Dec. 04, 2016 Rise Set
Actual Time
Civil Twilight
Nautical Twilight
Astronomical Twilight
Moon
Length of Visible Light
Length of Day
Tomorrow will be .
, % of the Moon is Illuminated

Today's Extremes

State Highs State Lows

Community

WunderPhotos

Upload Photos

1,955,744 photos uploaded!

WunderBlog® & News

Nearby

Air Quality

  Air Quality AQ Index Pollutant
Not available.

Snow Depth

Station Depth Elevation

Earthquake Activity

City Distance Mag. Time & Date
Minimum magnitude displayed is 2.5.

Coastal Water Temperatures

Place Temperature

Stations

Nearby Weather Stations

Station Location Temp. Windchill Dew Point Humidity Wind Precip. Elev Updated Type
                   

Watches & Warnings

There are currently no watches in effect.